createdAt,value
2022-11-15T00:01:27.379Z,108.07
2022-11-15T00:04:32.177Z,95.03
2022-11-15T00:07:57.361Z,91.90
2022-11-15T00:11:03.514Z,85.50
2022-11-15T00:14:08.300Z,79.97
2022-11-15T00:17:12.760Z,89.03
2022-11-15T00:20:18.746Z,100.28
2022-11-15T00:23:23.552Z,95.72
2022-11-15T00:26:28.135Z,91.82
2022-11-15T00:29:32.987Z,96.18
2022-11-15T00:32:38.001Z,97.50
2022-11-15T00:35:42.808Z,86.55
2022-11-15T00:38:47.614Z,104.75
2022-11-15T00:41:52.232Z,88.57
2022-11-15T00:44:56.897Z,86.70
2022-11-15T00:48:01.664Z,90.95
2022-11-15T00:51:06.639Z,80.03
2022-11-15T00:54:11.257Z,79.45
2022-11-15T00:57:16.061Z,72.35
2022-11-15T01:00:20.883Z,78.53
2022-11-15T01:03:25.640Z,84.43
2022-11-15T01:06:30.446Z,194.25
2022-11-15T01:09:35.301Z,144.10
2022-11-15T01:12:40.184Z,128.15
2022-11-15T01:15:44.858Z,120.13
2022-11-15T01:18:49.655Z,105.72
2022-11-15T01:21:54.219Z,102.45
2022-11-15T01:24:59.350Z,92.90
2022-11-15T01:28:04.417Z,88.78
2022-11-15T01:31:15.670Z,87.18
2022-11-15T01:34:20.503Z,94.35
2022-11-15T01:37:25.389Z,100.18
2022-11-15T01:40:30.129Z,103.07
2022-11-15T01:43:37.256Z,100.53
2022-11-15T01:46:43.747Z,93.43
2022-11-15T01:50:18.775Z,102.18
2022-11-15T01:53:25.773Z,98.78
2022-11-15T01:56:33.239Z,98.97
2022-11-15T01:59:39.833Z,95.57
2022-11-15T02:02:44.767Z,91.00
2022-11-15T02:05:50.133Z,86.20
2022-11-15T02:08:55.543Z,101.15
2022-11-15T02:12:00.731Z,110.18
2022-11-15T02:15:06.817Z,92.80
2022-11-15T02:18:27.911Z,83.07
2022-11-15T02:21:42.590Z,87.78
2022-11-15T02:25:21.367Z,80.40
2022-11-15T02:28:32.255Z,79.03
2022-11-15T02:31:39.741Z,75.53
2022-11-15T02:35:04.214Z,79.38
2022-11-15T02:38:41.207Z,90.45
2022-11-15T02:41:55.806Z,78.43
2022-11-15T02:45:05.314Z,66.50
2022-11-15T02:48:11.209Z,73.05
2022-11-15T02:51:17.078Z,64.25
2022-11-15T02:54:24.957Z,67.85
2022-11-15T02:57:32.388Z,66.65
2022-11-15T03:00:42.565Z,70.63
2022-11-15T03:04:04.140Z,70.00
2022-11-15T03:07:45.250Z,75.63
2022-11-15T03:10:59.022Z,64.75
2022-11-15T03:14:06.811Z,66.28
2022-11-15T03:17:52.809Z,68.32
2022-11-15T03:20:59.443Z,62.88
2022-11-15T03:24:06.843Z,63.15
2022-11-15T03:27:14.627Z,63.25
2022-11-15T03:30:19.752Z,79.10
2022-11-15T03:33:24.635Z,92.45
2022-11-15T03:36:30.082Z,106.68
2022-11-15T03:39:34.992Z,111.20
2022-11-15T03:42:58.326Z,99.55
2022-11-15T03:46:15.325Z,83.72
2022-11-15T03:49:32.414Z,68.18
2022-11-15T03:52:38.250Z,69.80
2022-11-15T03:55:43.271Z,68.93
2022-11-15T03:58:48.208Z,63.08
2022-11-15T04:01:52.995Z,65.75
2022-11-15T04:04:57.831Z,67.43
2022-11-15T04:08:02.863Z,65.68
2022-11-15T04:11:07.795Z,66.63
2022-11-15T04:14:12.597Z,69.03
2022-11-15T04:17:17.165Z,63.22
2022-11-15T04:20:43.055Z,66.75
2022-11-15T04:24:05.663Z,71.22
2022-11-15T04:27:11.195Z,70.57
2022-11-15T04:30:16.106Z,62.85
2022-11-15T04:33:20.785Z,62.22
2022-11-15T04:36:44.123Z,69.38
2022-11-15T04:39:48.704Z,62.20
2022-11-15T04:42:53.473Z,71.38
2022-11-15T04:45:58.189Z,72.35
2022-11-15T04:49:02.976Z,69.43
2022-11-15T04:52:07.493Z,75.03
2022-11-15T04:55:12.250Z,66.78
2022-11-15T04:58:17.063Z,67.43
2022-11-15T05:01:22.006Z,67.03
2022-11-15T05:04:27.371Z,66.57
2022-11-15T05:07:32.155Z,73.78
2022-11-15T05:10:36.800Z,75.50
2022-11-15T05:13:41.540Z,74.18
2022-11-15T05:16:46.508Z,71.35
2022-11-15T05:19:52.961Z,68.35
2022-11-15T05:22:57.869Z,67.22
2022-11-15T05:26:08.998Z,71.70
2022-11-15T05:29:14.685Z,64.80
2022-11-15T05:32:19.624Z,63.08
2022-11-15T05:35:32.997Z,68.50
2022-11-15T05:38:38.615Z,62.33
2022-11-15T05:41:55.236Z,63.63
2022-11-15T05:45:01.057Z,68.65
2022-11-15T05:48:07.893Z,62.78
2022-11-15T05:51:13.660Z,70.20
2022-11-15T05:54:18.962Z,79.13
2022-11-15T05:57:23.750Z,83.72
2022-11-15T06:00:29.546Z,82.18
2022-11-15T06:03:34.858Z,79.35
2022-11-15T06:06:39.523Z,79.50
2022-11-15T06:09:44.181Z,75.80
2022-11-15T06:13:00.312Z,73.03
2022-11-15T06:16:05.639Z,66.47
2022-11-15T06:19:10.593Z,72.80
2022-11-15T06:22:15.030Z,76.97
2022-11-15T06:25:19.778Z,82.10
2022-11-15T06:28:24.379Z,78.82
2022-11-15T06:31:29.417Z,74.45
2022-11-15T06:34:34.427Z,76.85
2022-11-15T06:37:39.316Z,88.88
2022-11-15T06:48:41.368Z,73.00
2022-11-15T06:51:46.306Z,72.60
2022-11-15T06:54:51.091Z,72.97
2022-11-15T06:57:55.824Z,76.18
2022-11-15T07:01:05.821Z,74.35
2022-11-15T07:04:10.061Z,78.53
2022-11-15T07:07:14.825Z,77.10
2022-11-15T07:10:20.035Z,76.63
2022-11-15T07:13:29.647Z,82.00
2022-11-15T07:16:34.724Z,83.93
2022-11-15T07:19:39.603Z,88.25
2022-11-15T07:22:46.246Z,80.32
2022-11-15T07:25:51.176Z,83.05
2022-11-15T07:28:56.105Z,86.15
2022-11-15T07:32:00.887Z,105.38
2022-11-15T07:35:05.886Z,95.53
2022-11-15T07:38:10.636Z,114.25
2022-11-15T07:41:15.484Z,112.95
2022-11-15T07:44:20.231Z,103.97
2022-11-15T07:47:24.966Z,98.47
2022-11-15T07:50:30.921Z,90.68
2022-11-15T07:53:35.554Z,80.28
2022-11-15T07:56:40.590Z,88.45
2022-11-15T07:59:45.384Z,86.85
2022-11-15T08:02:50.229Z,73.78
2022-11-15T08:05:54.751Z,82.40
2022-11-15T08:08:59.516Z,78.15
2022-11-15T08:12:04.611Z,76.72
2022-11-15T08:15:10.121Z,70.43
2022-11-15T08:18:16.271Z,74.95
2022-11-15T08:21:21.856Z,88.15
2022-11-15T08:24:26.703Z,79.55
2022-11-15T08:27:31.420Z,93.82
2022-11-15T08:30:38.655Z,102.57
2022-11-15T08:33:43.300Z,100.15
2022-11-15T08:36:48.129Z,105.40
2022-11-15T08:39:52.990Z,98.10
2022-11-15T08:42:59.767Z,114.13
2022-11-15T08:46:04.696Z,117.50
2022-11-15T08:49:09.183Z,101.15
2022-11-15T08:52:14.986Z,110.93
2022-11-15T08:55:22.115Z,99.20
2022-11-15T08:58:29.515Z,99.47
2022-11-15T09:15:49.855Z,103.72
2022-11-15T09:35:23.242Z,105.55
2022-11-15T09:38:28.712Z,101.45
2022-11-15T09:42:02.478Z,96.90
2022-11-15T09:45:37.736Z,87.75
2022-11-15T09:48:54.841Z,87.35
2022-11-15T09:51:54.983Z,99.57
2022-11-15T09:54:53.871Z,90.50
2022-11-15T09:57:53.403Z,90.85
2022-11-15T10:00:46.998Z,86.88
2022-11-15T10:03:40.412Z,88.82
2022-11-15T10:06:27.736Z,91.25
2022-11-15T10:09:22.693Z,92.18
2022-11-15T10:12:10.662Z,90.55
2022-11-15T10:15:04.189Z,97.45
2022-11-15T10:18:09.334Z,88.82
2022-11-15T10:21:18.678Z,80.57
2022-11-15T10:24:12.638Z,74.47
2022-11-15T10:26:58.786Z,76.80
2022-11-15T10:29:46.923Z,75.57
2022-11-15T10:32:34.462Z,74.05
2022-11-15T10:35:29.171Z,74.18
2022-11-15T10:38:15.372Z,73.65
2022-11-15T10:44:21.465Z,67.78
2022-11-15T10:47:23.341Z,63.88
2022-11-15T10:50:32.982Z,69.40
2022-11-15T10:53:29.494Z,61.30
2022-11-15T10:56:19.101Z,65.20
2022-11-15T10:59:05.166Z,62.22
2022-11-15T11:01:51.309Z,66.35
2022-11-15T11:04:53.158Z,51.78
2022-11-15T11:07:39.112Z,60.60
2022-11-15T11:13:32.442Z,56.05
2022-11-15T11:16:19.079Z,54.15
2022-11-15T11:19:18.434Z,46.63
2022-11-15T11:22:07.328Z,53.05
2022-11-15T11:25:05.290Z,57.95
2022-11-15T11:28:16.233Z,57.08
2022-11-15T11:31:34.548Z,42.22
2022-11-15T11:35:19.120Z,46.05
2022-11-15T11:38:34.740Z,53.08
2022-11-15T11:41:39.192Z,55.92
2022-11-15T11:44:49.589Z,55.90
2022-11-15T11:48:01.190Z,55.53
2022-11-15T11:50:48.078Z,65.55
2022-11-15T11:53:44.049Z,56.88
2022-11-15T12:08:23.677Z,47.50
2022-11-15T12:11:27.462Z,47.67
2022-11-15T12:14:28.823Z,60.95
2022-11-15T12:17:16.596Z,54.42
2022-11-15T12:20:08.964Z,49.83
2022-11-15T12:22:56.712Z,44.47
2022-11-15T12:26:15.315Z,43.33
2022-11-15T12:29:07.838Z,42.10
2022-11-15T12:32:01.008Z,45.00
2022-11-15T12:34:49.397Z,49.45
2022-11-15T12:37:44.297Z,46.20
2022-11-15T12:40:39.066Z,49.05
2022-11-15T12:43:46.575Z,44.20
2022-11-15T12:46:32.522Z,47.88
2022-11-15T12:49:24.565Z,48.65
2022-11-15T12:52:11.219Z,53.17
2022-11-15T12:54:59.556Z,50.28
2022-11-15T12:57:45.761Z,45.28
2022-11-15T13:00:32.045Z,53.28
2022-11-15T13:03:24.498Z,46.05
2022-11-15T13:06:39.222Z,43.92
2022-11-15T13:09:37.551Z,48.45
2022-11-15T13:12:23.431Z,46.17
2022-11-15T13:15:09.332Z,42.03
2022-11-15T13:17:57.480Z,46.83
2022-11-15T13:20:46.065Z,43.30
2022-11-15T13:23:32.039Z,45.15
2022-11-15T13:26:18.149Z,52.75
2022-11-15T13:29:04.436Z,44.63
2022-11-15T13:31:50.408Z,55.42
2022-11-15T13:34:53.119Z,42.72
2022-11-15T13:40:31.333Z,38.60
2022-11-15T13:43:28.658Z,41.75
2022-11-15T13:46:18.663Z,47.63
2022-11-15T13:49:14.593Z,48.40
2022-11-15T13:52:02.363Z,41.63
2022-11-15T13:54:48.295Z,57.38
2022-11-15T13:57:45.698Z,52.65
2022-11-15T14:00:35.840Z,52.15
2022-11-15T14:03:30.200Z,51.35
2022-11-15T14:06:18.584Z,52.55
2022-11-15T14:09:11.077Z,49.10
2022-11-15T14:11:58.154Z,51.10
2022-11-15T14:14:48.010Z,59.58
2022-11-15T14:17:36.565Z,59.50
2022-11-15T14:20:35.600Z,67.85
2022-11-15T14:23:28.925Z,68.07
2022-11-15T14:26:35.008Z,81.75
2022-11-15T14:29:24.430Z,77.43
2022-11-15T14:32:23.011Z,71.05
2022-11-15T14:35:16.579Z,78.00
2022-11-15T14:38:02.842Z,71.35
2022-11-15T14:40:48.891Z,77.78
2022-11-15T14:43:34.685Z,76.15
2022-11-15T14:46:20.929Z,71.68
2022-11-15T14:49:07.178Z,79.25
2022-11-15T14:51:52.970Z,78.97
2022-11-15T14:54:39.437Z,77.57
2022-11-15T14:57:25.477Z,80.07
2022-11-15T15:00:11.940Z,73.47
2022-11-15T15:02:59.207Z,70.82
2022-11-15T15:05:45.558Z,73.03
2022-11-15T15:08:32.022Z,89.70
2022-11-15T15:11:24.081Z,79.47
2022-11-15T15:14:09.854Z,84.32
2022-11-15T15:16:55.816Z,86.07
2022-11-15T15:19:41.786Z,81.78
2022-11-15T15:22:29.409Z,80.93
2022-11-15T15:25:27.976Z,82.60
2022-11-15T15:28:14.205Z,80.88
2022-11-15T15:31:00.201Z,77.13
2022-11-15T15:33:46.209Z,81.55
2022-11-15T15:36:32.120Z,71.30
2022-11-15T15:39:17.984Z,79.97
2022-11-15T15:42:05.020Z,80.28
2022-11-15T15:44:51.613Z,73.65
2022-11-15T15:47:38.562Z,74.18
2022-11-15T15:50:27.621Z,70.13
2022-11-15T15:53:14.248Z,73.95
2022-11-15T15:56:00.179Z,82.03
2022-11-15T15:58:46.156Z,69.80
2022-11-15T16:01:32.248Z,81.47
2022-11-15T16:04:17.896Z,77.45
2022-11-15T16:07:05.426Z,76.28
2022-11-15T16:10:04.165Z,81.18
2022-11-15T16:12:50.195Z,79.22
2022-11-15T16:15:36.341Z,76.28
2022-11-15T16:18:22.259Z,75.10
2022-11-15T16:21:09.124Z,81.88
2022-11-15T16:23:55.416Z,83.15
2022-11-15T16:26:41.500Z,78.35
2022-11-15T16:29:27.664Z,76.38
2022-11-15T16:32:14.009Z,73.85
2022-11-15T16:34:59.818Z,74.25
2022-11-15T16:37:47.215Z,72.82
2022-11-15T16:40:34.823Z,76.45
2022-11-15T16:43:20.947Z,74.25
2022-11-15T16:46:24.890Z,87.97
2022-11-15T16:49:15.354Z,80.13
2022-11-15T16:52:01.484Z,83.20
2022-11-15T16:54:47.578Z,81.55
2022-11-15T16:57:34.153Z,76.75
2022-11-15T17:00:20.439Z,76.70
2022-11-15T17:03:07.129Z,81.13
2022-11-15T17:05:53.445Z,87.00
2022-11-15T17:08:39.382Z,93.60
2022-11-15T17:11:25.305Z,93.50
2022-11-15T17:14:12.469Z,85.53
2022-11-15T17:16:58.472Z,86.15
2022-11-15T17:19:44.781Z,89.43
2022-11-15T17:22:31.585Z,85.55
2022-11-15T17:25:17.566Z,74.30
2022-11-15T17:28:03.873Z,83.82
2022-11-15T17:30:49.830Z,78.97
2022-11-15T17:33:36.369Z,82.40
2022-11-15T17:36:22.927Z,80.63
2022-11-15T17:39:09.094Z,77.97
2022-11-15T17:41:55.176Z,89.25
2022-11-15T17:44:41.461Z,86.47
2022-11-15T17:47:27.660Z,84.75
2022-11-15T17:50:13.630Z,89.70
2022-11-15T17:53:00.406Z,93.45
2022-11-15T17:55:46.485Z,91.90
2022-11-15T17:58:33.495Z,85.65
2022-11-15T18:01:27.256Z,84.78
2022-11-15T18:04:14.998Z,93.28
2022-11-15T18:07:01.152Z,90.45
2022-11-15T18:09:46.871Z,92.25
2022-11-15T18:12:32.999Z,94.10
2022-11-15T18:15:20.752Z,100.85
2022-11-15T18:18:06.852Z,103.22
2022-11-15T18:21:06.248Z,101.45
2022-11-15T18:23:59.792Z,99.07
2022-11-15T18:26:45.683Z,101.28
2022-11-15T18:29:32.605Z,101.85
2022-11-15T18:32:18.700Z,112.57
2022-11-15T18:35:06.524Z,96.43
2022-11-15T18:37:52.235Z,95.80
2022-11-15T18:40:38.336Z,90.22
2022-11-15T18:43:24.212Z,91.13
2022-11-15T18:46:12.778Z,94.32
2022-11-15T18:49:00.625Z,94.68
2022-11-15T18:51:47.452Z,95.97
2022-11-15T18:54:33.458Z,107.53
2022-11-15T18:57:19.662Z,97.15
2022-11-15T19:00:06.338Z,94.45
2022-11-15T19:02:55.034Z,100.63
2022-11-15T19:05:41.058Z,101.55
2022-11-15T19:08:29.575Z,104.22
2022-11-15T19:11:21.137Z,103.25
2022-11-15T19:14:09.683Z,99.95
2022-11-15T19:16:56.159Z,90.38
2022-11-15T19:19:44.119Z,97.97
2022-11-15T19:22:30.195Z,96.38
2022-11-15T19:25:18.894Z,111.47
2022-11-15T19:28:05.094Z,106.75
2022-11-15T19:30:52.570Z,108.82
2022-11-15T19:33:39.334Z,98.43
2022-11-15T19:36:28.284Z,96.88
2022-11-15T19:39:15.556Z,105.82
2022-11-15T19:42:03.094Z,100.80
2022-11-15T19:44:49.137Z,98.18
2022-11-15T19:47:35.460Z,111.90
2022-11-15T19:50:21.358Z,117.55
2022-11-15T19:53:07.401Z,98.25
2022-11-15T19:55:55.263Z,108.90
2022-11-15T19:58:42.114Z,102.80
2022-11-15T20:01:30.568Z,108.80
2022-11-15T20:04:16.916Z,119.25
2022-11-15T20:07:03.252Z,104.63
2022-11-15T20:09:49.400Z,106.00
2022-11-15T20:12:36.804Z,107.22
2022-11-15T20:15:23.388Z,102.90
2022-11-15T20:18:09.428Z,112.97
2022-11-15T20:20:58.021Z,118.50
2022-11-15T20:23:44.499Z,111.43
2022-11-15T20:26:32.210Z,113.05
2022-11-15T20:29:18.505Z,118.15
2022-11-15T20:32:05.431Z,128.55
2022-11-15T20:34:54.025Z,133.05
2022-11-15T20:37:40.674Z,129.98
2022-11-15T20:40:26.954Z,122.95
2022-11-15T20:43:15.229Z,128.02
2022-11-15T20:46:01.766Z,135.48
2022-11-15T20:48:48.272Z,134.80
2022-11-15T20:51:34.482Z,119.20
2022-11-15T20:54:20.513Z,126.85
2022-11-15T20:57:06.501Z,128.85
2022-11-15T20:59:52.777Z,133.70
2022-11-15T21:02:39.071Z,137.80
2022-11-15T21:05:26.515Z,127.53
2022-11-15T21:08:12.963Z,126.75
2022-11-15T21:11:17.382Z,127.85
2022-11-15T21:14:08.762Z,127.93
2022-11-15T21:16:55.422Z,128.23
2022-11-15T21:19:41.464Z,133.93
2022-11-15T21:22:28.069Z,123.88
2022-11-15T21:25:14.459Z,132.88
2022-11-15T21:28:00.698Z,125.38
2022-11-15T21:30:57.504Z,128.88
2022-11-15T21:33:43.714Z,124.05
2022-11-15T21:36:29.997Z,129.85
2022-11-15T21:39:16.179Z,111.05
2022-11-15T21:42:02.042Z,111.05
2022-11-15T21:44:48.401Z,128.38
2022-11-15T21:47:34.620Z,115.90
2022-11-15T21:50:20.481Z,113.97
2022-11-15T21:53:06.564Z,108.60
2022-11-15T21:55:52.866Z,119.75
2022-11-15T21:58:39.758Z,114.35
2022-11-15T22:01:45.449Z,114.90
2022-11-15T22:04:31.501Z,115.47
2022-11-15T22:07:17.510Z,115.05
2022-11-15T22:10:03.945Z,107.78
2022-11-15T22:12:49.768Z,109.57
2022-11-15T22:15:35.643Z,113.88
2022-11-15T22:18:26.784Z,100.85
2022-11-15T22:21:15.055Z,106.00
2022-11-15T22:24:01.088Z,104.32
2022-11-15T22:26:46.841Z,96.70
2022-11-15T22:29:32.838Z,94.55
2022-11-15T22:32:18.589Z,101.97
2022-11-15T22:35:05.432Z,94.38
2022-11-15T22:37:52.834Z,102.88
2022-11-15T22:40:38.968Z,92.40
2022-11-15T22:43:26.500Z,93.68
2022-11-15T22:46:12.334Z,100.97
2022-11-15T22:49:02.185Z,100.07
2022-11-15T22:51:49.223Z,90.88
2022-11-15T22:54:34.960Z,107.95
2022-11-15T22:57:20.678Z,120.43
2022-11-15T23:00:15.732Z,118.20
2022-11-15T23:03:01.880Z,124.78
2022-11-15T23:05:49.429Z,128.57
2022-11-15T23:08:35.423Z,128.60
2022-11-15T23:11:39.603Z,121.55
2022-11-15T23:14:25.750Z,126.95
2022-11-15T23:17:11.722Z,134.65
2022-11-15T23:19:57.584Z,137.65
2022-11-15T23:22:49.732Z,139.90
2022-11-15T23:25:35.768Z,141.38
2022-11-15T23:28:21.678Z,151.30
2022-11-15T23:31:26.587Z,145.57
2022-11-15T23:34:12.710Z,142.70
2022-11-15T23:36:58.916Z,154.43
2022-11-15T23:39:44.823Z,157.55
2022-11-15T23:42:30.552Z,155.55
2022-11-15T23:45:17.084Z,153.40
2022-11-15T23:48:03.552Z,145.82
2022-11-15T23:50:49.471Z,170.65
2022-11-15T23:53:35.685Z,153.82
2022-11-15T23:56:22.928Z,158.93
2022-11-15T23:59:09.123Z,167.32
